createdAt,value
2024-01-06T00:02:21.849Z,0.20
2024-01-06T00:04:48.946Z,0.10
2024-01-06T00:07:16.019Z,0.17
2024-01-06T00:09:43.109Z,0.10
2024-01-06T00:12:10.942Z,0.10
2024-01-06T00:14:38.096Z,0.10
2024-01-06T00:17:05.286Z,0.10
2024-01-06T00:19:32.474Z,0.00
2024-01-06T00:22:01.716Z,0.10
2024-01-06T00:24:28.943Z,0.10
2024-01-06T00:26:56.220Z,0.10
2024-01-06T00:29:23.441Z,0.07
2024-01-06T00:31:50.848Z,0.10
2024-01-06T00:34:18.074Z,0.13
2024-01-06T00:36:45.264Z,0.10
2024-01-06T00:39:12.718Z,0.10
2024-01-06T00:41:40.038Z,0.10
2024-01-06T00:44:07.096Z,0.10
2024-01-06T00:46:34.150Z,0.10
2024-01-06T00:49:01.425Z,0.10
2024-01-06T00:51:28.924Z,0.10
2024-01-06T00:53:56.207Z,0.10
2024-01-06T00:56:23.299Z,0.00
2024-01-06T00:58:50.387Z,0.10
2024-01-06T01:01:17.555Z,0.20
2024-01-06T01:03:44.756Z,0.10
2024-01-06T01:06:11.997Z,0.20
2024-01-06T01:08:39.067Z,0.10
2024-01-06T01:11:06.134Z,0.10
2024-01-06T01:13:33.224Z,0.10
2024-01-06T01:16:00.322Z,0.10
2024-01-06T01:18:27.623Z,0.10
2024-01-06T01:20:54.843Z,0.10
2024-01-06T01:23:21.924Z,0.10
2024-01-06T01:25:48.981Z,0.10
2024-01-06T01:28:16.080Z,0.13
2024-01-06T01:30:43.291Z,0.10
2024-01-06T01:33:10.662Z,0.10
2024-01-06T01:35:37.881Z,0.10
2024-01-06T01:38:05.161Z,0.10
2024-01-06T01:40:32.218Z,0.10
2024-01-06T01:42:59.306Z,0.10
2024-01-06T01:45:26.393Z,0.10
2024-01-06T01:47:53.523Z,0.10
2024-01-06T01:50:21.348Z,0.10
2024-01-06T01:52:48.701Z,0.10
2024-01-06T01:55:15.827Z,0.10
2024-01-06T01:57:42.918Z,0.03
2024-01-06T02:00:10.329Z,0.10
2024-01-06T02:02:37.473Z,0.10
2024-01-06T02:05:04.712Z,0.10
2024-01-06T02:07:31.876Z,0.03
2024-01-06T02:09:58.947Z,0.07
2024-01-06T02:12:26.064Z,0.00
2024-01-06T02:14:53.143Z,0.10
2024-01-06T02:17:20.187Z,0.10
2024-01-06T02:19:47.365Z,0.10
2024-01-06T02:22:14.468Z,0.20
2024-01-06T02:24:41.577Z,0.37
2024-01-06T02:27:08.720Z,0.60
2024-01-06T02:29:35.850Z,0.60
2024-01-06T02:32:02.895Z,0.70
2024-01-06T02:34:29.999Z,0.50
2024-01-06T02:36:57.134Z,0.57
2024-01-06T02:39:24.962Z,0.60
2024-01-06T02:41:52.052Z,0.60
2024-01-06T02:44:19.160Z,0.60
2024-01-06T02:46:46.202Z,0.60
2024-01-06T02:49:13.448Z,0.80
2024-01-06T02:51:40.657Z,0.90
2024-01-06T02:54:07.815Z,1.90
2024-01-06T02:56:34.916Z,2.00
2024-01-06T02:59:01.976Z,1.80
2024-01-06T03:01:29.195Z,1.70
2024-01-06T03:03:56.438Z,1.97
2024-01-06T03:06:23.607Z,1.70
2024-01-06T03:08:50.660Z,1.70
2024-01-06T03:11:17.764Z,1.50
2024-01-06T03:13:44.862Z,1.30
2024-01-06T03:16:13.933Z,1.20
2024-01-06T03:18:41.105Z,1.20
2024-01-06T03:21:17.918Z,1.10
2024-01-06T03:23:44.965Z,1.30
2024-01-06T03:26:12.059Z,1.10
2024-01-06T03:28:39.097Z,1.10
2024-01-06T03:31:06.221Z,1.27
2024-01-06T03:33:33.491Z,1.20
2024-01-06T03:36:00.675Z,1.10
2024-01-06T03:38:27.709Z,1.10
2024-01-06T03:40:54.759Z,1.10
2024-01-06T03:43:21.824Z,0.80
2024-01-06T03:45:48.982Z,0.70
2024-01-06T03:48:16.234Z,0.80
2024-01-06T03:50:43.516Z,0.60
2024-01-06T03:53:10.642Z,0.60
2024-01-06T03:55:37.685Z,0.50
2024-01-06T03:58:04.837Z,0.70
2024-01-06T04:00:31.935Z,0.40
2024-01-06T04:02:58.994Z,0.40
2024-01-06T04:05:26.044Z,0.60
2024-01-06T04:07:53.172Z,0.50
2024-01-06T04:10:20.241Z,0.40
2024-01-06T04:12:47.382Z,0.30
2024-01-06T04:15:14.472Z,0.33
2024-01-06T04:17:41.717Z,0.40
2024-01-06T04:20:09.214Z,0.40
2024-01-06T04:22:36.267Z,0.30
2024-01-06T04:25:03.432Z,0.30
2024-01-06T04:27:30.669Z,0.20
2024-01-06T04:29:57.795Z,0.20
2024-01-06T04:32:25.008Z,0.30
2024-01-06T04:34:52.174Z,0.30
2024-01-06T04:37:19.213Z,0.20
2024-01-06T04:39:46.316Z,0.20
2024-01-06T04:42:14.488Z,0.30
2024-01-06T04:44:41.595Z,0.30
2024-01-06T04:47:08.646Z,0.23
2024-01-06T04:49:35.799Z,0.30
2024-01-06T04:52:02.925Z,0.20
2024-01-06T04:54:30.040Z,0.30
2024-01-06T04:56:57.319Z,0.40
2024-01-06T04:59:24.376Z,0.30
2024-01-06T05:01:52.456Z,0.30
2024-01-06T05:04:20.341Z,0.20
2024-01-06T05:06:47.496Z,0.20
2024-01-06T05:09:14.642Z,0.23
2024-01-06T05:11:41.705Z,0.20
2024-01-06T05:14:08.794Z,0.30
2024-01-06T05:16:35.831Z,0.30
2024-01-06T05:19:03.491Z,0.20
2024-01-06T05:21:31.139Z,0.30
2024-01-06T05:23:58.245Z,0.30
2024-01-06T05:26:25.312Z,0.33
2024-01-06T05:28:52.391Z,0.20
2024-01-06T05:31:19.614Z,0.20
2024-01-06T05:33:46.852Z,0.20
2024-01-06T05:36:14.041Z,0.30
2024-01-06T05:38:41.142Z,0.10
2024-01-06T05:41:08.278Z,0.10
2024-01-06T05:43:35.453Z,0.27
2024-01-06T05:46:02.745Z,0.27
2024-01-06T05:48:30.015Z,0.20
2024-01-06T05:50:57.268Z,0.20
2024-01-06T05:53:24.311Z,0.20
2024-01-06T05:55:51.703Z,0.20
2024-01-06T05:58:18.765Z,0.27
2024-01-06T06:00:47.311Z,0.27
2024-01-06T06:03:14.550Z,0.30
2024-01-06T06:05:41.876Z,0.13
2024-01-06T06:08:08.991Z,0.10
2024-01-06T06:10:52.473Z,0.20
2024-01-06T06:13:19.601Z,0.20
2024-01-06T06:15:46.715Z,0.30
2024-01-06T06:18:13.980Z,0.20
2024-01-06T06:20:42.838Z,0.37
2024-01-06T06:23:09.892Z,0.37
2024-01-06T06:25:38.961Z,0.50
2024-01-06T06:28:06.254Z,0.50
2024-01-06T06:30:33.350Z,0.60
2024-01-06T06:33:00.571Z,0.70
2024-01-06T06:35:27.707Z,0.60
2024-01-06T06:37:54.998Z,0.80
2024-01-06T06:40:22.045Z,0.70
2024-01-06T06:42:49.135Z,0.97
2024-01-06T06:45:16.339Z,0.77
2024-01-06T06:47:43.524Z,1.00
2024-01-06T06:50:10.748Z,1.40
2024-01-06T06:52:37.934Z,2.83
2024-01-06T06:55:05.138Z,3.77
2024-01-06T06:57:32.247Z,4.73
2024-01-06T06:59:59.515Z,5.10
2024-01-06T07:02:26.582Z,5.00
2024-01-06T07:04:54.663Z,4.10
2024-01-06T07:07:21.764Z,4.57
2024-01-06T07:09:48.937Z,4.20
2024-01-06T07:12:16.097Z,4.10
2024-01-06T07:14:43.160Z,3.87
2024-01-06T07:17:10.235Z,4.10
2024-01-06T07:19:37.884Z,3.93
2024-01-06T07:22:07.371Z,4.20
2024-01-06T07:24:34.729Z,4.30
2024-01-06T07:27:01.816Z,4.20
2024-01-06T07:29:28.872Z,4.43
2024-01-06T07:31:55.993Z,4.13
2024-01-06T07:34:23.208Z,3.70
2024-01-06T07:36:50.371Z,2.73
2024-01-06T07:39:17.454Z,2.97
2024-01-06T07:41:44.529Z,3.10
2024-01-06T07:44:11.571Z,3.83
2024-01-06T07:46:40.069Z,3.63
2024-01-06T07:49:07.610Z,3.70
2024-01-06T07:51:36.071Z,2.93
2024-01-06T07:54:03.276Z,3.40
2024-01-06T07:56:30.337Z,2.90
2024-01-06T07:58:57.400Z,2.77
2024-01-06T08:01:24.622Z,2.70
2024-01-06T08:03:51.807Z,2.60
2024-01-06T08:06:19.026Z,2.30
2024-01-06T08:08:46.926Z,2.53
2024-01-06T08:11:14.019Z,2.60
2024-01-06T08:13:41.092Z,2.87
2024-01-06T08:16:08.143Z,2.80
2024-01-06T08:18:35.312Z,2.87
2024-01-06T08:21:02.570Z,2.57
2024-01-06T08:23:29.671Z,2.27
2024-01-06T08:25:56.724Z,2.20
2024-01-06T08:28:24.389Z,2.00
2024-01-06T08:30:51.846Z,2.00
2024-01-06T08:33:19.338Z,2.27
2024-01-06T08:35:46.637Z,2.00
2024-01-06T08:38:13.773Z,2.40
2024-01-06T08:40:40.824Z,2.30
2024-01-06T08:43:07.900Z,2.27
2024-01-06T08:45:34.968Z,2.10
2024-01-06T08:48:02.143Z,1.90
2024-01-06T08:50:29.249Z,2.30
2024-01-06T08:52:56.306Z,2.00
2024-01-06T08:55:23.348Z,2.30
2024-01-06T08:57:50.440Z,2.23
2024-01-06T09:00:18.530Z,2.17
2024-01-06T09:02:46.247Z,2.20
2024-01-06T09:05:13.360Z,1.83
2024-01-06T09:07:40.630Z,1.93
2024-01-06T09:10:08.401Z,1.80
2024-01-06T09:12:35.493Z,1.60
2024-01-06T09:15:02.668Z,1.80
2024-01-06T09:17:29.853Z,1.87
2024-01-06T09:19:57.016Z,1.70
2024-01-06T09:22:24.976Z,1.40
2024-01-06T09:24:52.273Z,1.40
2024-01-06T09:27:19.618Z,1.77
2024-01-06T09:29:46.742Z,1.60
2024-01-06T09:32:14.293Z,1.70
2024-01-06T09:34:41.441Z,1.87
2024-01-06T09:37:08.552Z,2.20
2024-01-06T09:39:35.900Z,1.70
2024-01-06T09:42:03.147Z,1.70
2024-01-06T09:44:30.284Z,1.80
2024-01-06T09:46:57.747Z,1.70
2024-01-06T09:49:25.369Z,1.60
2024-01-06T09:51:52.717Z,1.37
2024-01-06T09:54:21.603Z,1.57
2024-01-06T09:56:48.720Z,1.30
2024-01-06T09:59:15.776Z,1.40
2024-01-06T10:01:43.244Z,1.47
2024-01-06T10:04:10.457Z,1.67
2024-01-06T10:06:37.625Z,1.13
2024-01-06T10:09:06.194Z,1.70
2024-01-06T10:11:33.244Z,2.10
2024-01-06T10:14:00.291Z,2.10
2024-01-06T10:16:27.480Z,2.10
2024-01-06T10:18:54.948Z,1.83
2024-01-06T10:21:24.979Z,4.80
2024-01-06T10:23:52.423Z,4.60
2024-01-06T10:26:19.695Z,4.40
2024-01-06T10:28:46.799Z,5.43
2024-01-06T10:31:14.987Z,5.63
2024-01-06T10:33:42.295Z,6.07
2024-01-06T10:36:10.667Z,5.90
2024-01-06T10:38:37.748Z,5.33
2024-01-06T10:41:08.283Z,4.20
2024-01-06T10:43:37.577Z,4.00
2024-01-06T10:46:06.118Z,3.03
2024-01-06T10:48:36.452Z,2.97
2024-01-06T10:51:06.331Z,2.57
2024-01-06T10:53:33.749Z,2.50
2024-01-06T10:56:00.817Z,2.10
2024-01-06T10:58:27.930Z,2.17
2024-01-06T11:00:56.496Z,2.20
2024-01-06T11:03:23.720Z,2.57
2024-01-06T11:05:51.538Z,2.13
2024-01-06T11:08:19.048Z,2.00
2024-01-06T11:10:46.113Z,2.10
2024-01-06T11:13:13.577Z,1.87
2024-01-06T11:15:42.011Z,1.70
2024-01-06T11:18:09.243Z,1.70
2024-01-06T11:20:37.525Z,1.77
2024-01-06T11:23:21.717Z,1.93
2024-01-06T11:25:48.842Z,1.53
2024-01-06T11:28:18.111Z,1.53
2024-01-06T11:30:45.346Z,1.50
2024-01-06T11:33:12.794Z,1.47
2024-01-06T11:35:40.640Z,1.60
2024-01-06T11:38:08.379Z,1.70
2024-01-06T11:40:36.272Z,2.30
2024-01-06T11:43:06.780Z,3.00
2024-01-06T11:45:34.146Z,3.20
2024-01-06T11:48:03.400Z,2.90
2024-01-06T11:50:31.275Z,2.60
2024-01-06T11:52:58.368Z,2.80
2024-01-06T11:55:25.463Z,2.80
2024-01-06T11:57:52.683Z,2.87
2024-01-06T12:00:20.011Z,3.43
2024-01-06T12:02:47.205Z,4.90
2024-01-06T12:05:16.849Z,5.30
2024-01-06T12:07:44.101Z,4.97
2024-01-06T12:10:12.091Z,4.60
2024-01-06T12:12:39.822Z,5.90
2024-01-06T12:15:09.660Z,5.63
2024-01-06T12:17:36.902Z,7.43
2024-01-06T12:20:04.133Z,8.13
2024-01-06T12:22:31.230Z,7.77
2024-01-06T12:24:58.395Z,6.63
2024-01-06T12:27:26.494Z,6.00
2024-01-06T12:29:54.393Z,5.07
2024-01-06T12:32:21.508Z,4.53
2024-01-06T12:34:48.728Z,4.13
2024-01-06T12:37:15.853Z,3.37
2024-01-06T12:39:43.844Z,3.03
2024-01-06T12:42:10.968Z,2.10
2024-01-06T12:44:39.786Z,2.00
2024-01-06T12:47:06.846Z,1.60
2024-01-06T12:49:36.456Z,1.93
2024-01-06T12:52:04.404Z,1.40
2024-01-06T12:54:31.516Z,1.57
2024-01-06T12:56:58.564Z,1.40
2024-01-06T12:59:25.622Z,1.40
2024-01-06T13:01:52.713Z,1.17
2024-01-06T13:04:19.861Z,1.60
2024-01-06T13:06:47.113Z,1.40
2024-01-06T13:09:17.589Z,1.30
2024-01-06T13:11:47.434Z,1.60
2024-01-06T13:14:14.822Z,1.50
2024-01-06T13:16:41.950Z,1.60
2024-01-06T13:19:09.192Z,1.50
2024-01-06T13:21:36.489Z,1.50
2024-01-06T13:24:05.446Z,1.60
2024-01-06T13:26:32.509Z,1.70
2024-01-06T13:28:59.560Z,1.70
2024-01-06T13:31:27.776Z,1.70
2024-01-06T13:33:55.035Z,1.60
2024-01-06T13:36:22.346Z,1.77
2024-01-06T13:38:49.675Z,1.60
2024-01-06T13:41:16.955Z,1.50
2024-01-06T13:43:44.620Z,1.53
2024-01-06T13:46:14.911Z,1.50
2024-01-06T13:48:42.575Z,1.30
2024-01-06T13:51:09.913Z,1.30
2024-01-06T13:53:37.023Z,2.60
2024-01-06T13:56:04.225Z,2.60
2024-01-06T13:58:31.303Z,3.30
2024-01-06T14:00:58.421Z,3.77
2024-01-06T14:03:25.701Z,4.73
2024-01-06T14:05:54.526Z,5.07
2024-01-06T14:08:21.667Z,4.83
2024-01-06T14:10:48.725Z,5.13
2024-01-06T14:13:15.795Z,4.90
2024-01-06T14:15:43.168Z,4.47
2024-01-06T14:18:12.391Z,4.10
2024-01-06T14:20:41.574Z,3.90
2024-01-06T14:23:11.115Z,3.23
2024-01-06T14:25:38.239Z,3.07
2024-01-06T14:28:07.195Z,2.53
2024-01-06T14:30:34.398Z,2.50
2024-01-06T14:33:01.645Z,2.07
2024-01-06T14:35:28.831Z,2.30
2024-01-06T14:37:55.964Z,2.00
2024-01-06T14:40:23.416Z,2.33
2024-01-06T14:42:50.536Z,2.17
2024-01-06T14:45:19.295Z,2.33
2024-01-06T14:47:49.025Z,2.17
2024-01-06T14:50:17.871Z,1.87
2024-01-06T14:52:44.984Z,1.57
2024-01-06T14:55:12.264Z,1.50
2024-01-06T14:57:39.520Z,1.50
2024-01-06T15:00:07.503Z,1.27
2024-01-06T15:02:34.737Z,1.73
2024-01-06T15:05:01.995Z,1.23
2024-01-06T15:07:29.174Z,1.30
2024-01-06T15:09:56.333Z,1.20
2024-01-06T15:12:23.461Z,1.43
2024-01-06T15:14:50.593Z,1.10
2024-01-06T15:17:19.276Z,1.30
2024-01-06T15:19:46.987Z,1.10
2024-01-06T15:22:14.143Z,1.10
2024-01-06T15:24:41.369Z,1.20
2024-01-06T15:27:08.427Z,1.20
2024-01-06T15:29:35.581Z,1.30
2024-01-06T15:32:02.669Z,1.30
2024-01-06T15:34:29.821Z,1.10
2024-01-06T15:36:56.994Z,1.20
2024-01-06T15:39:24.110Z,1.20
2024-01-06T15:41:52.536Z,1.00
2024-01-06T15:44:19.600Z,1.20
2024-01-06T15:46:46.700Z,1.10
2024-01-06T15:49:13.858Z,1.27
2024-01-06T15:51:41.591Z,1.43
2024-01-06T15:54:08.737Z,1.20
2024-01-06T15:56:35.843Z,1.40
2024-01-06T15:59:02.930Z,1.40
2024-01-06T16:01:30.052Z,1.60
2024-01-06T16:03:57.223Z,1.70
2024-01-06T16:06:24.488Z,1.50
2024-01-06T16:08:51.642Z,1.87
2024-01-06T16:11:18.705Z,2.87
2024-01-06T16:13:45.841Z,3.00
2024-01-06T16:16:13.286Z,2.93
2024-01-06T16:18:40.504Z,2.40
2024-01-06T16:21:07.604Z,2.40
2024-01-06T16:23:34.686Z,2.73
2024-01-06T16:26:01.971Z,2.83
2024-01-06T16:28:29.103Z,2.80
2024-01-06T16:30:56.289Z,2.50
2024-01-06T16:33:23.887Z,3.40
2024-01-06T16:35:51.082Z,2.50
2024-01-06T16:38:18.125Z,2.40
2024-01-06T16:40:45.209Z,2.10
2024-01-06T16:43:13.041Z,2.53
2024-01-06T16:45:40.369Z,2.20
2024-01-06T16:48:07.693Z,2.20
2024-01-06T16:50:37.883Z,2.50
2024-01-06T16:53:06.612Z,2.37
2024-01-06T16:55:34.172Z,2.10
2024-01-06T16:58:02.345Z,2.00
2024-01-06T17:00:29.547Z,1.80
2024-01-06T17:02:56.809Z,1.70
2024-01-06T17:05:24.172Z,1.43
2024-01-06T17:07:52.174Z,1.30
2024-01-06T17:10:19.236Z,1.50
2024-01-06T17:12:46.333Z,1.67
2024-01-06T17:15:14.707Z,1.50
2024-01-06T17:17:42.647Z,1.83
2024-01-06T17:20:11.876Z,1.50
2024-01-06T17:22:39.588Z,1.90
2024-01-06T17:25:10.678Z,1.70
2024-01-06T17:27:39.057Z,1.40
2024-01-06T17:30:06.726Z,1.40
2024-01-06T17:32:36.643Z,1.30
2024-01-06T17:35:08.479Z,1.30
2024-01-06T17:37:35.653Z,1.20
2024-01-06T17:40:03.095Z,1.30
2024-01-06T17:42:31.276Z,1.20
2024-01-06T17:44:59.533Z,1.27
2024-01-06T17:47:26.617Z,1.60
2024-01-06T17:49:53.804Z,1.60
2024-01-06T17:52:20.982Z,1.80
2024-01-06T17:54:48.129Z,1.50
2024-01-06T17:57:19.094Z,1.50
2024-01-06T17:59:46.434Z,2.10
2024-01-06T18:02:13.521Z,1.83
2024-01-06T18:04:40.759Z,2.00
2024-01-06T18:07:09.037Z,2.00
2024-01-06T18:09:37.061Z,2.00
2024-01-06T18:12:04.607Z,2.00
2024-01-06T18:14:36.972Z,2.10
2024-01-06T18:17:04.935Z,1.90
2024-01-06T18:19:32.188Z,2.07
2024-01-06T18:21:59.401Z,3.30
2024-01-06T18:24:27.068Z,3.37
2024-01-06T18:26:54.199Z,3.30
2024-01-06T18:29:23.521Z,4.53
2024-01-06T18:31:50.946Z,4.67
2024-01-06T18:34:18.894Z,4.83
2024-01-06T18:36:46.237Z,4.00
2024-01-06T18:39:13.413Z,3.57
2024-01-06T18:41:40.901Z,3.13
2024-01-06T18:44:10.796Z,3.10
2024-01-06T18:46:38.626Z,3.30
2024-01-06T18:49:06.556Z,5.40
2024-01-06T18:51:38.112Z,5.67
2024-01-06T18:54:08.781Z,7.07
2024-01-06T18:56:35.894Z,6.93
2024-01-06T18:59:02.988Z,5.83
2024-01-06T19:01:30.389Z,5.17
2024-01-06T19:03:57.549Z,5.20
2024-01-06T19:06:24.672Z,5.50
2024-01-06T19:08:52.517Z,5.50
2024-01-06T19:11:19.740Z,5.70
2024-01-06T19:13:46.868Z,5.40
2024-01-06T19:16:14.249Z,4.53
2024-01-06T19:18:41.462Z,5.00
2024-01-06T19:21:12.732Z,5.93
2024-01-06T19:23:40.976Z,5.03
2024-01-06T19:26:08.244Z,4.93
2024-01-06T19:28:36.057Z,4.37
2024-01-06T19:31:03.311Z,4.00
2024-01-06T19:33:30.629Z,4.20
2024-01-06T19:35:58.667Z,4.37
2024-01-06T19:38:25.753Z,4.00
2024-01-06T19:40:52.866Z,4.13
2024-01-06T19:43:19.940Z,3.77
2024-01-06T19:45:47.049Z,3.00
2024-01-06T19:48:14.274Z,2.87
2024-01-06T19:50:41.530Z,3.13
2024-01-06T19:53:08.793Z,3.03
2024-01-06T19:55:35.907Z,2.70
2024-01-06T19:58:03.430Z,2.33
2024-01-06T20:00:32.186Z,2.40
2024-01-06T20:02:59.452Z,1.93
2024-01-06T20:05:26.551Z,2.57
2024-01-06T20:07:53.604Z,2.00
2024-01-06T20:10:21.042Z,1.80
2024-01-06T20:12:48.443Z,2.30
2024-01-06T20:15:15.573Z,2.10
2024-01-06T20:17:42.667Z,2.40
2024-01-06T20:20:11.359Z,2.47
2024-01-06T20:22:38.474Z,2.40
2024-01-06T20:25:05.972Z,2.30
2024-01-06T20:27:35.682Z,2.50
2024-01-06T20:30:03.246Z,2.47
2024-01-06T20:32:31.068Z,2.23
2024-01-06T20:35:00.034Z,2.10
2024-01-06T20:37:27.248Z,2.00
2024-01-06T20:39:55.666Z,2.00
2024-01-06T20:42:23.050Z,2.10
2024-01-06T20:44:50.376Z,1.77
2024-01-06T20:47:17.707Z,1.90
2024-01-06T20:49:44.963Z,1.70
2024-01-06T20:52:12.105Z,1.80
2024-01-06T20:54:39.321Z,2.60
2024-01-06T20:57:08.552Z,2.47
2024-01-06T20:59:35.688Z,2.23
2024-01-06T21:02:03.289Z,2.20
2024-01-06T21:04:30.365Z,2.20
2024-01-06T21:06:57.527Z,2.40
2024-01-06T21:09:27.034Z,1.90
2024-01-06T21:11:57.327Z,2.07
2024-01-06T21:14:24.390Z,2.10
2024-01-06T21:16:51.730Z,1.83
2024-01-06T21:19:19.590Z,1.87
2024-01-06T21:21:46.841Z,1.70
2024-01-06T21:24:14.018Z,1.90
2024-01-06T21:26:41.252Z,1.60
2024-01-06T21:29:08.323Z,1.90
2024-01-06T21:31:35.634Z,2.27
2024-01-06T21:34:03.168Z,1.80
2024-01-06T21:36:30.458Z,1.90
2024-01-06T21:38:57.910Z,1.90
2024-01-06T21:41:25.063Z,1.80
2024-01-06T21:43:52.687Z,2.20
2024-01-06T21:46:20.643Z,2.00
2024-01-06T21:48:48.088Z,2.40
2024-01-06T21:51:15.407Z,2.10
2024-01-06T21:53:42.475Z,1.83
2024-01-06T21:56:09.618Z,1.80
2024-01-06T21:58:36.678Z,1.73
2024-01-06T22:01:04.115Z,1.80
2024-01-06T22:03:31.413Z,2.47
2024-01-06T22:05:58.617Z,2.30
2024-01-06T22:08:25.704Z,2.60
2024-01-06T22:10:52.753Z,2.40
2024-01-06T22:13:19.856Z,2.50
2024-01-06T22:15:46.998Z,2.50
2024-01-06T22:18:14.228Z,2.23
2024-01-06T22:20:41.337Z,2.20
2024-01-06T22:23:08.408Z,2.53
2024-01-06T22:25:35.462Z,2.73
2024-01-06T22:28:03.069Z,2.70
2024-01-06T22:30:30.344Z,2.60
2024-01-06T22:32:57.601Z,2.73
2024-01-06T22:35:24.724Z,2.67
2024-01-06T22:37:51.834Z,3.00
2024-01-06T22:40:21.501Z,2.17
2024-01-06T22:42:48.913Z,2.50
2024-01-06T22:45:16.088Z,2.20
2024-01-06T22:47:43.214Z,2.17
2024-01-06T22:50:10.498Z,2.37
2024-01-06T22:52:37.720Z,2.20
2024-01-06T22:55:05.759Z,2.03
2024-01-06T22:57:32.960Z,2.00
2024-01-06T23:00:00.368Z,2.10
2024-01-06T23:02:27.560Z,1.93
2024-01-06T23:04:56.547Z,1.83
2024-01-06T23:07:23.822Z,2.10
2024-01-06T23:09:51.061Z,1.87
2024-01-06T23:12:18.178Z,1.87
2024-01-06T23:14:45.228Z,2.10
2024-01-06T23:17:12.297Z,2.50
2024-01-06T23:19:42.485Z,2.30
2024-01-06T23:22:11.764Z,2.40
2024-01-06T23:24:38.942Z,3.23
2024-01-06T23:27:06.050Z,3.33
2024-01-06T23:29:34.827Z,2.87
2024-01-06T23:32:03.859Z,3.17
2024-01-06T23:34:38.377Z,4.43
2024-01-06T23:37:10.761Z,4.13
2024-01-06T23:39:37.926Z,3.47
2024-01-06T23:42:06.141Z,3.20
2024-01-06T23:44:33.486Z,3.10
2024-01-06T23:47:00.570Z,2.90
2024-01-06T23:49:28.085Z,2.80
2024-01-06T23:51:55.299Z,2.70
2024-01-06T23:54:22.499Z,2.93
2024-01-06T23:56:49.660Z,2.77
2024-01-06T23:59:16.719Z,3.17
